createdAt,value
2023-05-19T00:00:21.468Z,0.77
2023-05-19T00:03:24.725Z,1.03
2023-05-19T00:06:31.779Z,0.52
2023-05-19T00:09:34.820Z,0.82
2023-05-19T00:12:37.734Z,0.97
2023-05-19T00:15:40.530Z,0.80
2023-05-19T00:18:43.527Z,0.68
2023-05-19T00:21:46.076Z,1.38
2023-05-19T00:24:49.235Z,0.55
2023-05-19T00:27:51.987Z,1.23
2023-05-19T00:30:55.055Z,0.73
2023-05-19T00:33:58.106Z,1.00
2023-05-19T00:37:01.106Z,0.90
2023-05-19T00:40:06.183Z,1.10
2023-05-19T00:43:14.062Z,1.03
2023-05-19T00:46:16.599Z,1.98
2023-05-19T00:49:19.487Z,0.90
2023-05-19T00:52:22.097Z,0.80
2023-05-19T00:55:31.478Z,0.50
2023-05-19T00:58:36.233Z,0.57
2023-05-19T01:01:39.450Z,1.65
2023-05-19T01:04:44.246Z,0.90
2023-05-19T01:07:47.518Z,0.75
2023-05-19T01:10:50.261Z,1.42
2023-05-19T01:13:52.993Z,1.00
2023-05-19T01:17:05.643Z,0.90
2023-05-19T01:20:25.957Z,1.08
2023-05-19T01:23:50.971Z,1.40
2023-05-19T01:27:15.175Z,1.13
2023-05-19T01:30:40.717Z,0.90
2023-05-19T01:33:43.959Z,2.17
2023-05-19T01:36:50.106Z,1.77
2023-05-19T01:39:53.419Z,2.47
2023-05-19T01:42:58.571Z,2.95
2023-05-19T01:46:02.507Z,5.87
2023-05-19T01:49:06.439Z,2.15
2023-05-19T01:52:09.205Z,2.47
2023-05-19T01:55:11.676Z,1.02
2023-05-19T01:58:47.625Z,2.00
2023-05-19T02:01:54.137Z,1.50
2023-05-19T02:05:05.498Z,2.92
2023-05-19T02:08:29.711Z,3.10
2023-05-19T02:11:38.018Z,2.75
2023-05-19T02:14:49.888Z,2.40
2023-05-19T02:17:55.670Z,1.20
2023-05-19T02:20:58.413Z,0.90
2023-05-19T02:24:01.022Z,2.75
2023-05-19T02:27:03.816Z,1.20
2023-05-19T02:30:07.316Z,1.48
2023-05-19T02:33:11.511Z,2.30
2023-05-19T02:36:14.816Z,2.08
2023-05-19T02:39:17.894Z,2.23
2023-05-19T02:42:20.873Z,1.85
2023-05-19T02:45:24.334Z,2.28
2023-05-19T02:48:27.276Z,1.20
2023-05-19T02:51:29.789Z,3.53
2023-05-19T02:54:33.767Z,1.25
2023-05-19T02:57:36.501Z,2.55
2023-05-19T03:00:39.431Z,1.42
2023-05-19T03:03:42.479Z,1.20
2023-05-19T03:06:45.421Z,1.63
2023-05-19T03:09:48.220Z,3.47
2023-05-19T03:12:50.920Z,1.67
2023-05-19T03:15:53.560Z,2.80
2023-05-19T03:18:56.385Z,0.70
2023-05-19T03:21:59.354Z,1.73
2023-05-19T03:25:02.487Z,2.80
2023-05-19T03:28:05.613Z,1.25
2023-05-19T03:31:08.409Z,2.40
2023-05-19T03:34:14.304Z,1.65
2023-05-19T03:37:16.943Z,2.28
2023-05-19T03:40:19.987Z,2.30
2023-05-19T03:43:24.005Z,1.75
2023-05-19T03:46:33.937Z,1.40
2023-05-19T03:49:53.489Z,3.07
2023-05-19T03:53:02.143Z,3.72
2023-05-19T03:56:08.969Z,1.50
2023-05-19T03:59:12.405Z,1.42
2023-05-19T04:02:16.499Z,1.25
2023-05-19T04:05:19.784Z,0.65
2023-05-19T04:08:22.230Z,1.92
2023-05-19T04:11:24.974Z,2.53
2023-05-19T04:14:27.509Z,1.60
2023-05-19T04:17:30.215Z,2.10
2023-05-19T04:20:33.027Z,2.40
2023-05-19T04:23:35.569Z,0.70
2023-05-19T04:26:38.544Z,2.33
2023-05-19T04:29:41.985Z,0.95
2023-05-19T04:32:44.841Z,0.77
2023-05-19T04:35:47.658Z,0.85
2023-05-19T04:38:54.826Z,1.70
2023-05-19T04:42:00.152Z,1.53
2023-05-19T04:45:05.428Z,1.08
2023-05-19T04:48:09.538Z,0.60
2023-05-19T04:51:14.331Z,1.40
2023-05-19T04:54:17.355Z,1.15
2023-05-19T04:57:20.109Z,1.55
2023-05-19T05:00:22.806Z,1.80
2023-05-19T05:03:31.075Z,1.40
2023-05-19T05:06:34.130Z,1.00
2023-05-19T05:09:36.761Z,3.30
2023-05-19T05:12:39.659Z,1.03
2023-05-19T05:15:42.340Z,1.95
2023-05-19T05:18:47.009Z,1.20
2023-05-19T05:21:50.087Z,1.33
2023-05-19T05:24:52.901Z,1.00
2023-05-19T05:27:55.863Z,1.52
2023-05-19T05:30:59.302Z,0.47
2023-05-19T05:34:02.056Z,1.17
2023-05-19T05:37:07.462Z,1.27
2023-05-19T05:40:11.742Z,1.20
2023-05-19T05:43:15.066Z,3.40
2023-05-19T05:46:23.894Z,1.05
2023-05-19T05:49:26.777Z,3.70
2023-05-19T05:52:32.475Z,0.83
2023-05-19T05:55:36.503Z,0.90
2023-05-19T05:58:40.872Z,1.33
2023-05-19T06:01:44.007Z,1.33
2023-05-19T06:04:47.231Z,0.65
2023-05-19T06:07:49.992Z,1.50
2023-05-19T06:10:58.770Z,1.40
2023-05-19T06:14:02.516Z,0.70
2023-05-19T06:17:25.511Z,1.85
2023-05-19T06:20:28.209Z,1.08
2023-05-19T06:23:31.521Z,1.63
2023-05-19T06:26:34.211Z,2.92
2023-05-19T06:29:36.944Z,1.30
2023-05-19T06:32:42.289Z,0.95
2023-05-19T06:35:44.866Z,1.10
2023-05-19T06:38:47.499Z,1.35
2023-05-19T06:41:50.032Z,1.13
2023-05-19T06:45:12.790Z,1.50
2023-05-19T06:48:15.648Z,1.10
2023-05-19T06:51:21.846Z,1.05
2023-05-19T06:54:28.797Z,1.20
2023-05-19T06:57:33.127Z,1.48
2023-05-19T07:00:37.558Z,1.20
2023-05-19T07:03:41.900Z,2.83
2023-05-19T07:06:46.492Z,1.20
2023-05-19T07:09:49.351Z,1.15
2023-05-19T07:12:51.940Z,1.38
2023-05-19T07:15:57.916Z,1.70
2023-05-19T07:19:03.222Z,1.17
2023-05-19T07:22:05.885Z,1.65
2023-05-19T07:25:08.878Z,1.30
2023-05-19T07:28:11.552Z,2.15
2023-05-19T07:31:14.152Z,1.60
2023-05-19T07:34:17.952Z,2.25
2023-05-19T07:37:20.529Z,1.40
2023-05-19T07:40:23.243Z,1.48
2023-05-19T07:43:25.769Z,1.48
2023-05-19T07:46:28.496Z,1.40
2023-05-19T07:49:31.156Z,2.65
2023-05-19T07:52:33.770Z,1.73
2023-05-19T07:55:36.305Z,1.43
2023-05-19T07:58:38.865Z,1.90
2023-05-19T08:01:41.422Z,1.42
2023-05-19T08:04:44.046Z,1.40
2023-05-19T08:07:47.179Z,1.55
2023-05-19T08:10:49.923Z,1.73
2023-05-19T08:13:52.424Z,1.48
2023-05-19T08:16:55.099Z,1.50
2023-05-19T08:19:57.568Z,2.35
2023-05-19T08:23:00.362Z,1.60
2023-05-19T08:26:03.150Z,1.80
2023-05-19T08:29:05.699Z,1.80
2023-05-19T08:32:09.795Z,1.58
2023-05-19T08:35:14.234Z,1.95
2023-05-19T08:38:16.685Z,2.20
2023-05-19T08:41:19.886Z,2.63
2023-05-19T08:44:45.665Z,2.38
2023-05-19T08:47:51.000Z,2.00
2023-05-19T08:51:09.488Z,2.38
2023-05-19T08:54:16.113Z,1.65
2023-05-19T08:57:19.170Z,1.93
2023-05-19T09:00:22.745Z,1.70
2023-05-19T09:03:26.737Z,1.98
2023-05-19T09:06:33.413Z,1.80
2023-05-19T09:09:36.023Z,2.38
2023-05-19T09:12:38.590Z,2.10
2023-05-19T09:15:43.021Z,4.82
2023-05-19T09:18:57.201Z,2.33
2023-05-19T09:22:01.303Z,2.20
2023-05-19T09:25:04.044Z,1.67
2023-05-19T09:28:08.874Z,2.20
2023-05-19T09:31:11.690Z,1.60
2023-05-19T09:34:14.231Z,2.08
2023-05-19T09:37:16.915Z,2.97
2023-05-19T09:40:19.913Z,2.72
2023-05-19T09:43:22.876Z,2.50
2023-05-19T09:46:29.866Z,2.75
2023-05-19T09:49:33.076Z,2.70
2023-05-19T09:52:39.501Z,2.20
2023-05-19T09:55:43.001Z,3.90
2023-05-19T09:58:52.566Z,2.57
2023-05-19T10:01:57.000Z,2.50
2023-05-19T10:05:01.300Z,1.77
2023-05-19T10:08:07.278Z,2.55
2023-05-19T10:11:12.090Z,2.05
2023-05-19T10:14:15.936Z,2.15
2023-05-19T10:17:18.874Z,4.07
2023-05-19T10:20:21.672Z,3.10
2023-05-19T10:23:24.258Z,3.53
2023-05-19T10:26:28.437Z,1.80
2023-05-19T10:29:35.398Z,2.60
2023-05-19T10:32:40.358Z,2.33
2023-05-19T10:36:09.809Z,2.50
2023-05-19T10:39:24.981Z,3.40
2023-05-19T10:42:57.318Z,2.60
2023-05-19T10:46:00.890Z,2.85
2023-05-19T10:49:03.487Z,2.60
2023-05-19T10:52:21.604Z,2.53
2023-05-19T10:55:50.019Z,2.83
2023-05-19T10:58:53.040Z,3.08
2023-05-19T11:01:55.725Z,3.23
2023-05-19T11:05:09.817Z,3.25
2023-05-19T11:08:13.011Z,3.00
2023-05-19T11:11:16.902Z,3.30
2023-05-19T11:14:26.675Z,2.80
2023-05-19T11:17:29.581Z,3.55
2023-05-19T11:20:39.670Z,3.58
2023-05-19T11:23:46.711Z,6.10
2023-05-19T11:26:49.471Z,4.65
2023-05-19T11:29:53.014Z,3.30
2023-05-19T11:32:56.725Z,2.43
2023-05-19T11:35:59.557Z,4.45
2023-05-19T11:39:02.732Z,3.50
2023-05-19T11:42:06.917Z,2.50
2023-05-19T11:45:10.526Z,3.60
2023-05-19T11:48:13.916Z,2.95
2023-05-19T11:51:17.315Z,2.50
2023-05-19T11:54:20.146Z,3.43
2023-05-19T11:57:22.732Z,2.50
2023-05-19T12:00:30.322Z,3.10
2023-05-19T12:03:33.186Z,3.45
2023-05-19T12:06:37.120Z,2.78
2023-05-19T12:09:40.347Z,3.42
2023-05-19T12:12:45.255Z,2.63
2023-05-19T12:15:47.783Z,2.90
2023-05-19T12:18:50.631Z,3.50
2023-05-19T12:21:54.030Z,3.88
2023-05-19T12:24:56.942Z,3.08
2023-05-19T12:28:05.734Z,2.60
2023-05-19T12:31:08.353Z,2.47
2023-05-19T12:34:13.225Z,2.60
2023-05-19T12:37:15.820Z,3.20
2023-05-19T12:40:18.451Z,2.35
2023-05-19T12:43:22.928Z,2.95
2023-05-19T12:46:25.515Z,2.90
2023-05-19T12:49:28.137Z,2.93
2023-05-19T12:52:35.516Z,2.80
2023-05-19T12:55:43.536Z,2.95
2023-05-19T12:58:46.209Z,3.42
2023-05-19T13:01:58.159Z,2.97
2023-05-19T13:05:00.795Z,2.55
2023-05-19T13:08:08.894Z,2.55
2023-05-19T13:11:11.450Z,4.40
2023-05-19T13:14:15.824Z,2.63
2023-05-19T13:17:19.469Z,2.70
2023-05-19T13:20:22.486Z,2.60
2023-05-19T13:23:26.306Z,3.75
2023-05-19T13:26:28.877Z,4.45
2023-05-19T13:29:31.403Z,2.40
2023-05-19T13:32:34.270Z,4.23
2023-05-19T13:35:39.840Z,3.08
2023-05-19T13:38:42.695Z,3.40
2023-05-19T13:41:45.271Z,3.60
2023-05-19T13:44:47.950Z,3.53
2023-05-19T13:47:50.486Z,2.75
2023-05-19T13:50:55.590Z,4.60
2023-05-19T13:53:58.115Z,3.75
2023-05-19T13:57:01.350Z,4.05
2023-05-19T14:00:05.856Z,3.72
2023-05-19T14:03:16.298Z,3.45
2023-05-19T14:06:18.884Z,3.90
2023-05-19T14:09:21.754Z,5.50
2023-05-19T14:12:34.779Z,4.60
2023-05-19T14:15:42.417Z,3.50
2023-05-19T14:18:45.048Z,2.85
2023-05-19T14:21:47.959Z,3.08
2023-05-19T14:24:50.463Z,3.25
2023-05-19T14:27:53.156Z,3.83
2023-05-19T14:30:55.739Z,3.33
2023-05-19T14:33:58.330Z,4.60
2023-05-19T14:37:02.204Z,3.57
2023-05-19T14:40:05.170Z,3.33
2023-05-19T14:43:07.988Z,4.72
2023-05-19T14:46:10.867Z,3.47
2023-05-19T14:49:13.400Z,3.58
2023-05-19T14:52:16.104Z,5.55
2023-05-19T14:55:18.572Z,2.30
2023-05-19T15:01:29.211Z,2.55
2023-05-19T15:04:32.111Z,3.17
2023-05-19T15:07:34.651Z,3.20
2023-05-19T15:10:37.246Z,2.65
2023-05-19T15:13:39.887Z,3.28
2023-05-19T15:16:42.692Z,2.90
2023-05-19T15:19:45.272Z,2.63
2023-05-19T15:22:48.828Z,2.60
2023-05-19T15:25:53.060Z,2.80
2023-05-19T15:28:55.851Z,2.63
2023-05-19T15:31:58.506Z,2.88
2023-05-19T15:35:01.253Z,3.03
2023-05-19T15:38:06.361Z,4.25
2023-05-19T15:41:09.354Z,3.23
2023-05-19T15:44:12.051Z,3.05
2023-05-19T15:47:14.521Z,3.17
2023-05-19T15:50:17.471Z,3.15
2023-05-19T15:53:20.367Z,2.47
2023-05-19T15:56:22.925Z,3.03
2023-05-19T15:59:25.747Z,2.92
2023-05-19T16:02:28.439Z,2.77
2023-05-19T16:05:30.930Z,4.90
2023-05-19T16:08:33.690Z,3.65
2023-05-19T16:11:36.225Z,4.27
2023-05-19T16:14:38.823Z,3.33
2023-05-19T16:17:41.436Z,3.67
2023-05-19T16:20:44.211Z,2.92
2023-05-19T16:23:46.918Z,3.05
2023-05-19T16:26:49.609Z,3.67
2023-05-19T16:29:52.129Z,3.92
2023-05-19T16:32:54.874Z,4.60
2023-05-19T16:35:58.692Z,3.47
2023-05-19T16:39:01.457Z,5.63
2023-05-19T16:42:04.761Z,2.67
2023-05-19T16:45:08.202Z,2.97
2023-05-19T16:48:11.361Z,4.97
2023-05-19T16:51:14.082Z,3.13
2023-05-19T16:54:16.885Z,3.70
2023-05-19T16:57:19.424Z,4.57
2023-05-19T17:00:22.220Z,5.28
2023-05-19T17:03:24.899Z,5.33
2023-05-19T17:06:27.850Z,3.88
2023-05-19T17:09:30.494Z,5.75
2023-05-19T17:12:33.087Z,5.67
2023-05-19T17:15:35.660Z,6.85
2023-05-19T17:18:38.366Z,5.53
2023-05-19T17:21:40.980Z,5.32
2023-05-19T17:24:43.802Z,4.97
2023-05-19T17:27:46.358Z,5.15
2023-05-19T17:30:48.981Z,5.75
2023-05-19T17:33:51.457Z,5.70
2023-05-19T17:36:54.158Z,9.30
2023-05-19T17:39:56.822Z,9.82
2023-05-19T17:42:59.314Z,13.30
2023-05-19T17:46:01.989Z,11.85
2023-05-19T17:49:04.935Z,14.30
2023-05-19T17:52:08.197Z,11.07
2023-05-19T17:55:12.047Z,11.93
2023-05-19T17:58:14.724Z,9.73
2023-05-19T18:01:18.030Z,8.18
2023-05-19T18:04:21.114Z,6.57
2023-05-19T18:07:26.397Z,4.68
2023-05-19T18:10:29.953Z,6.22
2023-05-19T18:13:32.598Z,4.37
2023-05-19T18:16:35.261Z,6.28
2023-05-19T18:19:37.833Z,5.25
2023-05-19T18:22:40.790Z,4.80
2023-05-19T18:25:49.954Z,5.03
2023-05-19T18:28:52.475Z,4.38
2023-05-19T18:31:55.351Z,5.55
2023-05-19T18:34:57.837Z,4.03
2023-05-19T18:38:00.972Z,5.88
2023-05-19T18:41:03.448Z,4.85
2023-05-19T18:44:08.193Z,6.63
2023-05-19T18:47:11.055Z,5.68
2023-05-19T18:50:14.480Z,5.00
2023-05-19T18:53:17.210Z,5.35
2023-05-19T18:56:23.960Z,6.00
2023-05-19T18:59:26.446Z,4.45
2023-05-19T19:02:29.195Z,6.22
2023-05-19T19:05:31.800Z,5.63
2023-05-19T19:08:34.460Z,6.13
2023-05-19T19:11:36.965Z,4.95
2023-05-19T19:14:39.611Z,4.27
2023-05-19T19:17:42.364Z,6.00
2023-05-19T19:20:45.201Z,10.43
2023-05-19T19:23:47.743Z,4.28
2023-05-19T19:26:50.888Z,5.07
2023-05-19T19:29:54.050Z,7.18
2023-05-19T19:32:57.126Z,4.40
2023-05-19T19:35:59.680Z,5.07
2023-05-19T19:39:02.405Z,4.70
2023-05-19T19:42:05.194Z,6.03
2023-05-19T19:45:08.298Z,8.60
2023-05-19T19:48:12.185Z,4.68
2023-05-19T19:51:14.874Z,6.25
2023-05-19T19:54:18.442Z,4.93
2023-05-19T19:57:21.200Z,6.20
2023-05-19T20:00:23.775Z,5.78
2023-05-19T20:03:27.277Z,6.72
2023-05-19T20:06:29.824Z,4.67
2023-05-19T20:09:32.700Z,6.57
2023-05-19T20:12:35.329Z,6.30
2023-05-19T20:15:39.159Z,6.50
2023-05-19T20:18:41.995Z,8.15
2023-05-19T20:21:44.632Z,9.25
2023-05-19T20:24:47.313Z,9.35
2023-05-19T20:27:50.387Z,7.95
2023-05-19T20:30:53.018Z,8.68
2023-05-19T20:33:55.880Z,6.85
2023-05-19T20:36:58.347Z,3.77
2023-05-19T20:40:01.109Z,4.78
2023-05-19T20:43:03.713Z,8.45
2023-05-19T20:46:06.487Z,4.63
2023-05-19T20:49:09.111Z,5.95
2023-05-19T20:52:11.890Z,5.60
2023-05-19T20:55:14.654Z,9.45
2023-05-19T20:58:17.410Z,4.10
2023-05-19T21:01:19.930Z,2.75
2023-05-19T21:04:22.929Z,4.25
2023-05-19T21:07:25.540Z,6.07
2023-05-19T21:10:28.389Z,4.68
2023-05-19T21:13:31.572Z,3.97
2023-05-19T21:16:34.450Z,5.47
2023-05-19T21:19:37.397Z,5.72
2023-05-19T21:22:41.132Z,3.83
2023-05-19T21:25:45.379Z,3.35
2023-05-19T21:28:48.676Z,5.13
2023-05-19T21:31:52.624Z,3.33
2023-05-19T21:34:55.794Z,5.43
2023-05-19T21:38:00.580Z,4.87
2023-05-19T21:41:06.738Z,4.80
2023-05-19T21:44:09.162Z,4.47
2023-05-19T21:47:11.769Z,3.57
2023-05-19T21:50:17.420Z,4.40
2023-05-19T21:53:20.479Z,4.25
2023-05-19T21:56:22.973Z,3.67
2023-05-19T21:59:26.538Z,5.97
2023-05-19T22:02:29.016Z,6.90
2023-05-19T22:05:32.506Z,4.75
2023-05-19T22:08:34.992Z,4.53
2023-05-19T22:11:37.910Z,3.90
2023-05-19T22:14:41.267Z,4.60
2023-05-19T22:17:44.064Z,5.37
2023-05-19T22:20:46.886Z,4.75
2023-05-19T22:23:49.595Z,4.93
2023-05-19T22:26:52.246Z,5.25
2023-05-19T22:29:55.114Z,4.55
2023-05-19T22:32:57.861Z,5.07
2023-05-19T22:36:00.538Z,6.93
2023-05-19T22:39:03.130Z,6.90
2023-05-19T22:42:06.213Z,5.30
2023-05-19T22:45:09.380Z,8.27
2023-05-19T22:48:12.056Z,7.67
2023-05-19T22:51:14.697Z,5.25
2023-05-19T22:54:17.424Z,6.07
2023-05-19T22:57:20.207Z,5.40
2023-05-19T23:00:22.895Z,6.13
2023-05-19T23:03:25.538Z,6.70
2023-05-19T23:06:28.591Z,5.57
2023-05-19T23:09:31.107Z,5.77
2023-05-19T23:12:34.139Z,6.55
2023-05-19T23:15:36.707Z,5.95
2023-05-19T23:18:39.326Z,5.17
2023-05-19T23:21:41.993Z,6.05
2023-05-19T23:24:44.702Z,6.53
2023-05-19T23:27:47.350Z,6.20
2023-05-19T23:30:53.778Z,7.97
2023-05-19T23:33:56.437Z,7.22
2023-05-19T23:36:59.397Z,5.47
2023-05-19T23:40:01.852Z,8.20
2023-05-19T23:43:04.468Z,6.55
2023-05-19T23:46:07.191Z,7.93
2023-05-19T23:49:09.714Z,5.60
2023-05-19T23:52:13.924Z,7.10
2023-05-19T23:55:16.699Z,6.97
2023-05-19T23:58:19.444Z,6.22
